createdAt,value
2018-12-27T00:01:04.505Z,13.23
2018-12-27T00:03:38.221Z,15.30
2018-12-27T00:06:08.656Z,14.23
2018-12-27T00:08:39.366Z,14.10
2018-12-27T00:11:09.838Z,16.13
2018-12-27T00:13:40.339Z,15.70
2018-12-27T00:16:10.700Z,18.07
2018-12-27T00:18:41.239Z,19.60
2018-12-27T00:21:11.654Z,18.03
2018-12-27T00:23:42.072Z,15.93
2018-12-27T00:26:12.524Z,13.03
2018-12-27T00:28:43.096Z,15.63
2018-12-27T00:31:13.673Z,13.53
2018-12-27T00:33:44.341Z,13.17
2018-12-27T00:36:15.019Z,15.43
2018-12-27T00:38:45.918Z,14.00
2018-12-27T00:41:16.670Z,13.03
2018-12-27T00:43:47.305Z,13.53
2018-12-27T00:46:17.937Z,13.00
2018-12-27T00:48:48.588Z,12.40
2018-12-27T00:51:19.325Z,14.13
2018-12-27T00:53:50.297Z,12.73
2018-12-27T00:56:20.899Z,12.77
2018-12-27T00:58:51.592Z,14.33
2018-12-27T01:01:22.245Z,14.10
2018-12-27T01:03:52.914Z,16.17
2018-12-27T01:06:23.516Z,14.13
2018-12-27T01:08:54.430Z,13.43
2018-12-27T01:11:25.041Z,14.83
2018-12-27T01:13:55.726Z,15.47
2018-12-27T01:16:26.332Z,14.17
2018-12-27T01:18:56.977Z,15.07
2018-12-27T01:21:27.623Z,15.37
2018-12-27T01:23:58.212Z,14.07
2018-12-27T01:26:28.897Z,15.70
2018-12-27T01:28:59.953Z,13.10
2018-12-27T01:31:30.601Z,14.07
2018-12-27T01:34:01.257Z,13.57
2018-12-27T01:36:32.140Z,15.60
2018-12-27T01:39:04.124Z,14.87
2018-12-27T01:41:34.717Z,13.87
2018-12-27T01:44:05.342Z,12.20
2018-12-27T01:46:35.955Z,15.77
2018-12-27T01:49:06.571Z,13.53
2018-12-27T01:51:37.207Z,12.53
2018-12-27T01:54:07.865Z,16.53
2018-12-27T01:56:38.471Z,11.80
2018-12-27T01:59:09.178Z,12.97
2018-12-27T02:01:39.793Z,16.33
2018-12-27T02:04:10.446Z,15.97
2018-12-27T02:06:41.091Z,15.77
2018-12-27T02:09:12.115Z,14.80
2018-12-27T02:11:42.722Z,18.43
2018-12-27T02:14:13.644Z,14.47
2018-12-27T02:16:44.278Z,17.77
2018-12-27T02:19:14.908Z,12.50
2018-12-27T02:21:45.541Z,13.17
2018-12-27T02:24:16.160Z,12.67
2018-12-27T02:26:46.786Z,12.37
2018-12-27T02:29:17.447Z,12.13
2018-12-27T02:31:48.059Z,12.83
2018-12-27T02:34:18.711Z,12.20
2018-12-27T02:36:50.807Z,13.30
2018-12-27T02:39:21.704Z,12.67
2018-12-27T02:41:52.312Z,12.23
2018-12-27T02:44:22.969Z,12.63
2018-12-27T02:46:53.583Z,13.70
2018-12-27T02:49:24.237Z,13.50
2018-12-27T02:51:54.838Z,14.73
2018-12-27T02:54:25.497Z,11.27
2018-12-27T02:56:56.105Z,11.60
2018-12-27T02:59:26.723Z,10.43
2018-12-27T03:01:57.327Z,9.67
2018-12-27T03:04:27.967Z,11.37
2018-12-27T03:06:58.592Z,10.30
2018-12-27T03:09:29.517Z,11.07
2018-12-27T03:12:00.121Z,10.70
2018-12-27T03:14:32.155Z,14.87
2018-12-27T03:17:02.790Z,12.27
2018-12-27T03:19:34.173Z,14.93
2018-12-27T03:22:04.806Z,13.93
2018-12-27T03:24:35.532Z,13.23
2018-12-27T03:27:06.178Z,14.43
2018-12-27T03:29:36.852Z,13.37
2018-12-27T03:32:07.483Z,13.60
2018-12-27T03:34:38.115Z,12.13
2018-12-27T03:37:08.740Z,14.80
2018-12-27T03:39:39.638Z,15.43
2018-12-27T03:42:10.273Z,13.77
2018-12-27T03:44:40.890Z,13.67
2018-12-27T03:47:11.491Z,14.80
2018-12-27T03:49:42.141Z,13.90
2018-12-27T03:52:14.411Z,15.13
2018-12-27T03:54:45.038Z,11.87
2018-12-27T03:57:15.638Z,12.03
2018-12-27T03:59:47.184Z,16.47
2018-12-27T04:02:17.820Z,16.00
2018-12-27T04:04:48.637Z,15.70
2018-12-27T04:07:19.243Z,14.83
2018-12-27T04:09:49.892Z,13.33
2018-12-27T04:12:20.779Z,18.60
2018-12-27T04:14:51.527Z,20.70
2018-12-27T04:17:21.970Z,17.17
2018-12-27T04:19:52.746Z,21.00
2018-12-27T04:22:23.207Z,17.33
2018-12-27T04:24:53.858Z,17.73
2018-12-27T04:27:24.381Z,18.50
2018-12-27T04:29:54.782Z,16.87
2018-12-27T04:32:26.290Z,16.80
2018-12-27T04:34:57.330Z,18.37
2018-12-27T04:37:27.774Z,17.63
2018-12-27T04:39:58.586Z,19.20
2018-12-27T04:42:29.661Z,16.73
2018-12-27T04:45:00.967Z,19.00
2018-12-27T04:47:31.348Z,15.73
2018-12-27T04:50:01.740Z,16.73
2018-12-27T04:52:32.186Z,16.57
2018-12-27T04:55:02.779Z,17.87
2018-12-27T04:57:33.451Z,18.23
2018-12-27T05:00:04.397Z,14.40
2018-12-27T05:02:34.848Z,17.80
2018-12-27T05:05:05.634Z,14.97
2018-12-27T05:07:36.001Z,13.10
2018-12-27T05:10:06.971Z,16.00
2018-12-27T05:12:37.369Z,15.13
2018-12-27T05:15:08.002Z,17.63
2018-12-27T05:17:38.467Z,14.97
2018-12-27T05:20:09.038Z,16.20
2018-12-27T05:22:39.662Z,18.17
2018-12-27T05:25:10.159Z,19.07
2018-12-27T05:27:40.607Z,16.80
2018-12-27T05:30:11.079Z,13.13
2018-12-27T05:32:41.872Z,13.67
2018-12-27T05:35:12.291Z,16.23
2018-12-27T05:37:42.751Z,15.90
2018-12-27T05:40:13.375Z,15.43
2018-12-27T05:42:43.896Z,16.10
2018-12-27T05:45:14.354Z,14.23
2018-12-27T05:47:44.782Z,16.47
2018-12-27T05:50:15.258Z,19.23
2018-12-27T05:52:45.751Z,18.73
2018-12-27T05:55:16.237Z,18.37
2018-12-27T05:57:46.690Z,17.43
2018-12-27T06:00:17.076Z,18.00
2018-12-27T06:02:47.539Z,15.57
2018-12-27T06:05:18.053Z,16.97
2018-12-27T06:07:48.573Z,16.53
2018-12-27T06:10:19.051Z,18.87
2018-12-27T06:12:50.701Z,15.67
2018-12-27T06:15:21.255Z,16.20
2018-12-27T06:17:51.680Z,14.17
2018-12-27T06:20:22.090Z,14.53
2018-12-27T06:22:52.690Z,14.77
2018-12-27T06:25:23.201Z,14.50
2018-12-27T06:27:55.006Z,15.20
2018-12-27T06:30:25.646Z,15.57
2018-12-27T06:32:56.192Z,14.83
2018-12-27T07:13:28.396Z,16.50
2018-12-27T07:15:58.783Z,17.43
2018-12-27T07:18:33.250Z,16.47
2018-12-27T07:21:04.620Z,18.63
2018-12-27T07:23:35.487Z,16.27
2018-12-27T07:26:06.301Z,19.23
2018-12-27T07:28:37.060Z,16.80
2018-12-27T07:31:07.735Z,17.27
2018-12-27T07:33:38.492Z,21.43
2018-12-27T07:36:16.299Z,26.17
2018-12-27T07:38:47.187Z,18.27
2018-12-27T07:41:18.129Z,20.70
2018-12-27T07:43:48.561Z,19.80
2018-12-27T07:46:19.028Z,20.73
2018-12-27T07:48:49.475Z,14.73
2018-12-27T07:51:20.676Z,16.60
2018-12-27T07:53:51.574Z,20.80
2018-12-27T07:56:22.829Z,20.07
2018-12-27T07:58:53.791Z,15.20
2018-12-27T08:01:24.589Z,16.00
2018-12-27T08:03:55.525Z,14.83
2018-12-27T08:06:28.182Z,15.40
2018-12-27T08:08:59.040Z,18.83
2018-12-27T08:11:29.762Z,15.87
2018-12-27T08:14:00.420Z,17.83
2018-12-27T08:16:31.409Z,19.07
2018-12-27T08:19:02.526Z,20.87
2018-12-27T08:21:33.024Z,20.00
2018-12-27T08:24:03.542Z,25.87
2018-12-27T08:26:34.087Z,36.67
2018-12-27T08:29:04.589Z,29.97
2018-12-27T08:31:38.529Z,26.80
2018-12-27T08:34:09.320Z,25.43
2018-12-27T08:36:40.417Z,21.80
2018-12-27T08:39:11.091Z,22.07
2018-12-27T08:41:42.557Z,22.23
2018-12-27T08:44:12.983Z,24.30
2018-12-27T08:46:43.502Z,20.47
2018-12-27T08:49:14.035Z,21.70
2018-12-27T08:51:44.671Z,19.30
2018-12-27T08:54:15.221Z,19.50
2018-12-27T08:56:45.610Z,22.27
2018-12-27T08:59:15.992Z,23.60
2018-12-27T09:01:46.480Z,18.70
2018-12-27T09:04:16.863Z,19.37
2018-12-27T09:06:47.399Z,20.97
2018-12-27T09:09:17.966Z,20.70
2018-12-27T09:11:48.372Z,22.60
2018-12-27T09:14:18.821Z,21.90
2018-12-27T09:16:49.502Z,21.73
2018-12-27T09:19:19.870Z,20.17
2018-12-27T09:21:50.284Z,21.13
2018-12-27T09:24:20.712Z,20.37
2018-12-27T09:26:52.167Z,22.93
2018-12-27T09:29:22.751Z,19.90
2018-12-27T09:31:53.208Z,24.20
2018-12-27T09:34:23.975Z,24.83
2018-12-27T09:36:54.770Z,22.33
2018-12-27T09:39:25.300Z,21.57
2018-12-27T09:41:55.942Z,19.13
2018-12-27T09:44:26.906Z,22.90
2018-12-27T09:46:57.310Z,22.57
2018-12-27T09:49:27.770Z,20.47
2018-12-27T09:52:01.973Z,20.20
2018-12-27T09:54:30.581Z,21.97
2018-12-27T09:57:00.976Z,21.57
2018-12-27T09:59:31.366Z,24.33
2018-12-27T10:02:01.769Z,22.10
2018-12-27T10:04:32.421Z,22.87
2018-12-27T10:07:02.926Z,22.87
2018-12-27T10:09:33.368Z,22.87
2018-12-27T10:12:03.879Z,21.43
2018-12-27T10:14:34.257Z,21.30
2018-12-27T10:17:05.092Z,21.30
2018-12-27T10:19:35.690Z,22.47
2018-12-27T10:22:06.270Z,21.43
2018-12-27T10:24:36.763Z,21.63
2018-12-27T10:27:07.436Z,27.97
2018-12-27T10:29:38.032Z,22.43
2018-12-27T10:32:08.583Z,23.40
2018-12-27T10:34:38.982Z,23.93
2018-12-27T10:37:09.498Z,23.20
2018-12-27T10:39:40.098Z,23.10
2018-12-27T10:42:10.642Z,23.97
2018-12-27T10:44:41.214Z,21.83
2018-12-27T10:47:11.624Z,22.37
2018-12-27T10:49:42.124Z,24.77
2018-12-27T10:52:12.694Z,21.97
2018-12-27T10:54:43.227Z,21.87
2018-12-27T10:57:13.788Z,17.30
2018-12-27T10:59:45.543Z,20.60
2018-12-27T11:02:16.339Z,18.57
2018-12-27T11:04:46.807Z,18.80
2018-12-27T11:07:17.220Z,22.43
2018-12-27T11:09:48.039Z,21.33
2018-12-27T11:12:18.568Z,22.13
2018-12-27T11:14:49.065Z,21.20
2018-12-27T11:17:19.583Z,25.20
2018-12-27T11:19:50.088Z,27.03
2018-12-27T11:22:20.748Z,29.23
2018-12-27T11:24:51.224Z,28.03
2018-12-27T11:27:21.707Z,30.73
2018-12-27T11:29:52.258Z,28.60
2018-12-27T11:32:22.879Z,29.37
2018-12-27T11:34:53.456Z,30.67
2018-12-27T11:37:23.996Z,31.73
2018-12-27T11:39:54.717Z,29.63
2018-12-27T11:42:25.116Z,30.03
2018-12-27T11:44:55.672Z,29.37
2018-12-27T11:47:26.760Z,28.93
2018-12-27T11:49:57.424Z,28.63
2018-12-27T11:52:27.888Z,28.70
2018-12-27T11:54:58.896Z,31.10
2018-12-27T11:57:29.454Z,31.50
2018-12-27T12:00:00.702Z,29.17
2018-12-27T12:02:31.521Z,26.27
2018-12-27T12:05:02.120Z,27.07
2018-12-27T12:07:32.571Z,28.00
2018-12-27T12:10:03.436Z,26.00
2018-12-27T12:12:34.373Z,28.63
2018-12-27T12:15:07.444Z,28.10
2018-12-27T12:17:37.904Z,26.37
2018-12-27T12:20:08.802Z,23.20
2018-12-27T12:22:40.862Z,27.07
2018-12-27T12:25:11.421Z,25.00
2018-12-27T12:27:41.781Z,28.17
2018-12-27T12:30:12.524Z,26.10
2018-12-27T12:32:43.046Z,23.57
2018-12-27T12:35:13.601Z,26.57
2018-12-27T12:37:44.986Z,23.87
2018-12-27T12:40:15.997Z,22.17
2018-12-27T12:42:46.584Z,24.27
2018-12-27T12:45:17.242Z,22.50
2018-12-27T12:47:47.853Z,23.83
2018-12-27T12:50:18.427Z,25.33
2018-12-27T12:52:49.028Z,25.77
2018-12-27T12:55:20.900Z,24.53
2018-12-27T12:57:51.422Z,23.47
2018-12-27T13:00:21.900Z,24.43
2018-12-27T13:02:52.425Z,26.03
2018-12-27T13:05:23.320Z,22.60
2018-12-27T13:07:53.875Z,25.33
2018-12-27T13:10:24.634Z,25.23
2018-12-27T13:12:55.186Z,23.27
2018-12-27T13:15:25.721Z,21.97
2018-12-27T13:17:57.357Z,31.60
2018-12-27T13:20:27.921Z,29.87
2018-12-27T13:22:58.417Z,26.23
2018-12-27T13:25:29.848Z,22.13
2018-12-27T13:28:00.359Z,21.93
2018-12-27T13:30:30.880Z,21.30
2018-12-27T13:33:01.419Z,23.17
2018-12-27T13:35:31.840Z,23.83
2018-12-27T13:38:02.288Z,22.90
2018-12-27T13:40:32.972Z,22.57
2018-12-27T13:43:03.535Z,22.43
2018-12-27T13:45:33.997Z,24.23
2018-12-27T13:48:04.578Z,22.53
2018-12-27T13:50:35.146Z,21.07
2018-12-27T13:53:05.716Z,26.67
2018-12-27T13:55:36.122Z,27.07
2018-12-27T13:58:06.584Z,30.83
2018-12-27T14:00:37.160Z,24.97
2018-12-27T14:03:07.664Z,25.50
2018-12-27T14:05:38.181Z,28.23
2018-12-27T14:08:08.825Z,26.73
2018-12-27T14:10:40.304Z,31.70
2018-12-27T14:13:11.603Z,26.87
2018-12-27T14:15:43.845Z,29.80
2018-12-27T14:18:14.317Z,30.33
2018-12-27T14:20:44.881Z,29.40
2018-12-27T14:23:15.339Z,29.03
2018-12-27T14:25:45.815Z,27.67
2018-12-27T14:28:16.252Z,25.10
2018-12-27T14:30:46.746Z,25.60
2018-12-27T14:33:17.220Z,28.97
2018-12-27T14:35:47.669Z,30.60
2018-12-27T14:38:18.117Z,26.53
2018-12-27T14:40:48.752Z,29.27
2018-12-27T14:43:19.218Z,26.70
2018-12-27T14:45:50.136Z,27.43
2018-12-27T14:48:20.756Z,26.30
2018-12-27T14:50:51.330Z,28.87
2018-12-27T14:53:21.814Z,27.53
2018-12-27T14:55:52.397Z,29.37
2018-12-27T14:58:22.769Z,28.90
2018-12-27T15:00:53.479Z,31.20
2018-12-27T15:03:23.925Z,29.33
2018-12-27T15:05:54.973Z,31.43
2018-12-27T15:08:25.519Z,29.10
2018-12-27T15:10:56.419Z,32.43
2018-12-27T15:13:27.001Z,32.00
2018-12-27T15:15:57.472Z,33.40
2018-12-27T15:18:28.049Z,30.47
2018-12-27T15:20:58.671Z,29.30
2018-12-27T15:23:29.182Z,32.03
2018-12-27T15:25:59.742Z,34.50
2018-12-27T15:28:30.224Z,36.57
2018-12-27T15:31:00.653Z,41.03
2018-12-27T15:33:32.903Z,35.63
2018-12-27T15:36:03.470Z,36.67
2018-12-27T15:38:34.028Z,36.10
2018-12-27T15:41:05.957Z,34.00
2018-12-27T15:43:36.373Z,30.53
2018-12-27T15:46:07.105Z,31.53
2018-12-27T15:48:37.502Z,32.17
2018-12-27T15:51:08.268Z,33.40
2018-12-27T15:53:38.684Z,33.93
2018-12-27T15:56:09.111Z,33.13
2018-12-27T15:58:39.573Z,33.87
2018-12-27T16:01:10.023Z,32.80
2018-12-27T16:03:40.566Z,34.03
2018-12-27T16:06:11.124Z,35.53
2018-12-27T16:08:41.707Z,44.47
2018-12-27T16:11:12.328Z,50.73
2018-12-27T16:13:42.983Z,49.90
2018-12-27T16:16:15.137Z,50.50
2018-12-27T16:18:45.539Z,50.00
2018-12-27T16:21:16.007Z,45.07
2018-12-27T16:23:46.571Z,46.20
2018-12-27T16:26:17.005Z,48.40
2018-12-27T16:28:47.436Z,47.27
2018-12-27T16:31:17.979Z,45.87
2018-12-27T16:33:48.612Z,45.17
2018-12-27T16:36:19.165Z,41.23
2018-12-27T16:38:49.794Z,45.63
2018-12-27T16:41:20.419Z,51.83
2018-12-27T16:43:52.387Z,50.60
2018-12-27T16:46:22.821Z,48.97
2018-12-27T16:48:53.312Z,44.67
2018-12-27T16:51:23.834Z,43.73
2018-12-27T16:53:54.292Z,43.57
2018-12-27T16:56:24.771Z,46.80
2018-12-27T16:58:55.160Z,43.13
2018-12-27T17:01:25.781Z,43.43
2018-12-27T17:03:56.298Z,40.60
2018-12-27T17:06:28.045Z,40.63
2018-12-27T17:08:59.343Z,42.13
2018-12-27T17:11:29.965Z,42.67
2018-12-27T17:14:00.774Z,42.90
2018-12-27T17:16:31.515Z,41.07
2018-12-27T17:19:05.290Z,45.33
2018-12-27T17:21:35.915Z,45.03
2018-12-27T17:24:07.719Z,43.77
2018-12-27T17:26:38.245Z,44.37
2018-12-27T17:29:09.677Z,47.00
2018-12-27T17:31:40.192Z,43.00
2018-12-27T17:34:10.889Z,37.33
2018-12-27T17:36:41.368Z,39.77
2018-12-27T17:39:12.011Z,42.10
2018-12-27T17:41:42.516Z,44.13
2018-12-27T17:44:13.362Z,39.77
2018-12-27T17:46:43.870Z,39.33
2018-12-27T17:49:14.685Z,40.67
2018-12-27T17:51:45.312Z,36.07
2018-12-27T17:54:18.628Z,40.43
2018-12-27T17:56:49.142Z,39.37
2018-12-27T17:59:19.949Z,39.40
2018-12-27T18:01:50.460Z,39.47
2018-12-27T18:04:21.037Z,41.57
2018-12-27T18:06:51.483Z,39.23
2018-12-27T18:09:22.204Z,37.17
2018-12-27T18:11:52.802Z,41.83
2018-12-27T18:14:23.900Z,36.77
2018-12-27T18:16:54.413Z,42.90
2018-12-27T18:19:25.007Z,39.07
2018-12-27T18:21:55.395Z,39.23
2018-12-27T18:24:25.807Z,38.70
2018-12-27T18:26:56.255Z,36.20
2018-12-27T18:29:28.567Z,31.17
2018-12-27T18:31:59.098Z,46.13
2018-12-27T18:34:29.669Z,37.17
2018-12-27T18:37:00.212Z,39.53
2018-12-27T18:39:30.701Z,38.70
2018-12-27T18:42:01.825Z,38.57
2018-12-27T18:44:32.404Z,40.80
2018-12-27T18:47:02.804Z,41.93
2018-12-27T18:49:34.019Z,38.63
2018-12-27T18:52:04.594Z,38.40
2018-12-27T18:54:35.167Z,37.20
2018-12-27T18:57:05.772Z,38.30
2018-12-27T18:59:36.258Z,37.73
2018-12-27T19:02:06.988Z,36.47
2018-12-27T19:04:39.719Z,41.27
2018-12-27T19:07:10.183Z,34.83
2018-12-27T19:09:40.816Z,34.50
2018-12-27T19:13:07.764Z,37.53
2018-12-27T19:15:49.385Z,32.57
2018-12-27T19:18:24.636Z,38.23
2018-12-27T19:20:59.182Z,37.50
2018-12-27T19:23:30.946Z,30.30
2018-12-27T19:26:01.864Z,31.17
2018-12-27T19:28:32.860Z,30.70
2018-12-27T19:31:05.044Z,31.70
2018-12-27T19:33:35.418Z,33.80
2018-12-27T19:36:05.990Z,33.10
2018-12-27T19:38:36.549Z,36.87
2018-12-27T19:41:07.159Z,35.00
2018-12-27T19:43:37.824Z,35.93
2018-12-27T19:46:08.992Z,32.07
2018-12-27T19:48:39.367Z,32.13
2018-12-27T19:51:10.015Z,32.97
2018-12-27T19:53:43.290Z,33.67
2018-12-27T19:56:13.776Z,33.13
2018-12-27T19:58:44.448Z,31.80
2018-12-27T20:01:15.050Z,34.37
2018-12-27T20:03:45.480Z,33.47
2018-12-27T20:06:16.048Z,37.23
2018-12-27T20:08:46.605Z,32.77
2018-12-27T20:11:17.829Z,31.17
2018-12-27T20:13:51.067Z,30.73
2018-12-27T20:16:22.051Z,34.57
2018-12-27T20:18:52.665Z,36.40
2018-12-27T20:21:23.510Z,36.07
2018-12-27T20:23:54.677Z,32.33
2018-12-27T20:26:26.562Z,29.03
2018-12-27T20:29:00.180Z,32.63
2018-12-27T20:31:30.928Z,31.13
2018-12-27T20:34:01.650Z,43.20
2018-12-27T20:36:32.488Z,44.77
2018-12-27T20:39:04.313Z,56.27
2018-12-27T20:41:36.942Z,62.27
2018-12-27T20:44:08.429Z,54.40
2018-12-27T20:46:43.145Z,56.60
2018-12-27T20:49:17.747Z,50.87
2018-12-27T20:51:48.560Z,48.33
2018-12-27T20:54:19.206Z,49.43
2018-12-27T20:56:50.413Z,47.27
2018-12-27T20:59:20.975Z,46.47
2018-12-27T21:01:51.729Z,45.33
2018-12-27T21:04:22.256Z,47.03
2018-12-27T21:06:53.979Z,45.93
2018-12-27T21:09:24.763Z,41.20
2018-12-27T21:11:55.321Z,45.10
2018-12-27T21:14:25.746Z,62.27
2018-12-27T21:16:57.513Z,55.00
2018-12-27T21:19:27.984Z,54.87
2018-12-27T21:21:58.594Z,51.57
2018-12-27T21:24:29.068Z,51.37
2018-12-27T21:27:00.391Z,51.50
2018-12-27T21:29:30.881Z,50.90
2018-12-27T21:32:01.412Z,54.90
2018-12-27T21:34:33.730Z,49.27
2018-12-27T21:37:04.364Z,50.00
2018-12-27T21:39:34.976Z,52.30
2018-12-27T21:42:05.549Z,58.77
2018-12-27T21:44:36.105Z,52.87
2018-12-27T21:47:06.940Z,54.63
2018-12-27T21:49:37.394Z,52.07
2018-12-27T21:52:08.290Z,49.80
2018-12-27T21:54:38.814Z,50.57
2018-12-27T21:57:09.343Z,49.50
2018-12-27T21:59:40.028Z,56.23
2018-12-27T22:02:10.447Z,55.00
2018-12-27T22:04:40.999Z,54.17
2018-12-27T22:07:12.500Z,55.97
2018-12-27T22:09:42.873Z,59.67
2018-12-27T22:12:13.346Z,52.83
2018-12-27T22:14:44.656Z,53.87
2018-12-27T22:17:15.257Z,51.73
2018-12-27T22:19:45.794Z,53.90
2018-12-27T22:22:16.391Z,52.57
2018-12-27T22:24:47.203Z,60.20
2018-12-27T22:27:18.789Z,55.90
2018-12-27T22:29:49.205Z,55.60
2018-12-27T22:32:19.656Z,49.67
2018-12-27T22:34:50.207Z,49.17
2018-12-27T22:37:21.011Z,57.70
2018-12-27T22:39:51.474Z,55.77
2018-12-27T22:42:21.900Z,58.17
2018-12-27T22:44:52.418Z,56.60
2018-12-27T22:47:24.278Z,55.07
2018-12-27T22:49:54.827Z,50.83
2018-12-27T22:52:25.391Z,51.87
2018-12-27T22:54:55.928Z,50.83
2018-12-27T22:57:26.461Z,52.47
2018-12-27T23:00:00.367Z,50.30
2018-12-27T23:02:30.915Z,47.10
2018-12-27T23:05:01.520Z,53.27
2018-12-27T23:07:32.089Z,49.80
2018-12-27T23:10:03.054Z,46.37
2018-12-27T23:12:33.689Z,44.80
2018-12-27T23:15:04.585Z,50.27
2018-12-27T23:17:35.198Z,52.47
2018-12-27T23:20:06.510Z,47.90
2018-12-27T23:22:37.927Z,47.40
2018-12-27T23:25:08.780Z,42.97
2018-12-27T23:27:41.871Z,44.30
2018-12-27T23:30:19.275Z,49.60
2018-12-27T23:32:45.065Z,45.73
2018-12-27T23:35:17.367Z,53.13
2018-12-27T23:37:47.928Z,46.47
2018-12-27T23:40:18.378Z,47.27
2018-12-27T23:42:48.944Z,45.63
2018-12-27T23:45:19.540Z,52.87
2018-12-27T23:47:50.481Z,48.00
2018-12-27T23:50:21.323Z,47.63
2018-12-27T23:52:52.005Z,51.97
2018-12-27T23:55:22.670Z,49.47
2018-12-27T23:57:54.950Z,48.87
